Billings, MT (59101)

12:25 AM MDT on September 01, 2015 (GMT -0600)
The Lodge at Eagle Cliffs | | Change Station
CLOSE
Current Station
Personal Weather Station
Location: Billings, MT
Elevation: 3376 ft
Nearby Weather Stations

Elev 3376 ft 45.82 °N, 108.51 °W | Updated 12 minutes ago

Clear
Clear
59.9 °F
Feels Like 59.9 °F
N
0.0
Wind Variable Wind from SSW

Today
High -- | Low -- °F
--% Chance of Precip.
Yesterday
High -- | Low -- °F
Precip. -- in
6:34 AM 7:52 PM
Waning Gibbous, 91% visible
Pressure 29.82 in
Visibility 10.0 miles
Clouds Few 22000 ft
Dew Point 38 °F
Humidity 44%
Rainfall 0.00 in
Snow Depth Not available.
UV 0 out of 12
Pollen 8.80 out of 12
Air Quality Not available.
Flu Activity Not available.
METAR KBIL 010553Z 12004KT 10SM FEW220 21/00 A2990 RMK AO2 SLP096 T02110000 10289 20200 50001
Pressure 29.82 in
Visibility 10.0 miles
Clouds Few 22000 ft
Dew Point 38 °F
Humidity 44%
Rainfall 0.00 in
Snow Depth Not available.
UV 0 out of 12
Pollen 8.80 out of 12
Air Quality Not available.
Flu Activity Not available.
METAR KBIL 010553Z 12004KT 10SM FEW220 21/00 A2990 RMK AO2 SLP096 T02110000 10289 20200 50001

10-Day Weather Forecast

×

Almanac

Astronomy

Sep. 01, 2015 Rise Set
Actual Time
Civil Twilight
Nautical Twilight
Astronomical Twilight
Moon
Length of Visible Light
Length of Day
Tomorrow will be .
, % of the Moon is Illuminated

Today's Extremes

State Highs State Lows

Community

WunderPhotos

Upload Photos

1,851,488 photos uploaded!

WunderBlogs® & News

Nearby

Air Quality

  Air Quality AQ Index Pollutant
Not available.

Snow Depth

Station Depth Elevation

Earthquake Activity

City Distance Mag. Time & Date
Minimum magnitude displayed is 2.5.

Coastal Water Temperatures

Place Temperature

Stations

Nearby Weather Stations

Station Location Temp. Windchill Dew Point Humidity Wind Precip. Elev Updated Type